Terminal Aerodrome Forecast
Issued by NWS Shreveport, LA

Home | Current Version | Previous Version | Text Only | Print | Product List | Glossary On
Versions: 1 2 3 4 5 6 7 8 9 10 11 12 13 14 15 16 17 18 19 20 21 22 23
000
FTUS44 KSHV 240500
TAFGGG
TAF
KGGG 240526Z 2406/2506 17007KT P6SM BKN250
     FM240900 17009KT P6SM SCT015 BKN250
      TEMPO 2410/2414 BKN015
     FM241500 19015G24KT P6SM BKN035
     FM241900 21016G25KT P6SM VCTS BKN040CB
     FM250200 31008KT P6SM SKC=

USA.gov is the U.S. government's official web portal to all federal, state and local government web resources and services.